Time;durP1;ratioP1;P1;durP2;ratioP2;P2;SDS_P1;SDS_P2;PMS_P1;PMS_P2;Temp;Humidity;BMP_temperature;BMP_pressure;BME280_temperature;BME280_humidity;BME280_pressure;Samples;Min_cycle;Max_cycle;Signal;HPM_P1;HPM_P2
2024/02/10 09:45:57;;;;;;;6.47;5.87;;;;;;;11.11;100.00;96198.56;5656761;22;15843603;-88
2024/02/10 10:32:15;;;;;;;2.63;2.43;;;;;;;13.11;100.00;96163.78;6320668;22;39972;-88
2024/02/10 10:35:22;;;;;;;3.07;2.20;;;;;;;13.04;100.00;96127.47;6294861;22;41670;-87
2024/02/10 10:37:56;;;;;;;3.23;2.90;;;;;;;13.58;100.00;96208.81;6294720;22;42570;-87
2024/02/10 11:33:32;;;;;;;5.97;3.90;;;;;;;13.90;99.83;96197.03;6351740;22;41250;-87
2024/02/10 11:36:00;;;;;;;5.27;4.10;;;;;;;13.99;98.48;96195.13;6351602;22;39240;-88
2024/02/10 11:38:28;;;;;;;4.47;4.07;;;;;;;14.05;98.43;96177.59;6351356;22;41791;-88
2024/02/10 11:40:55;;;;;;;6.47;4.40;;;;;;;14.20;96.57;96181.09;6351079;22;41999;-88
2024/02/10 11:43:23;;;;;;;6.30;5.43;;;;;;;14.36;94.60;96191.53;6376936;22;43189;-87
2024/02/10 11:45:51;;;;;;;7.70;5.03;;;;;;;14.31;96.09;96157.50;6351206;22;40175;-88
2024/02/10 11:48:18;;;;;;;7.40;5.60;;;;;;;14.30;94.37;96155.84;6351132;22;40734;-87
2024/02/10 11:50:48;;;;;;;5.43;4.90;;;;;;;14.21;95.43;96129.53;6350938;22;42819;-88
2024/02/10 11:53:16;;;;;;;7.60;6.03;;;;;;;14.26;95.15;96127.13;6350427;22;42290;-89
2024/02/10 11:55:47;;;;;;;7.47;5.60;;;;;;;14.38;94.69;96144.28;6350619;22;39220;-88
2024/02/10 11:58:18;;;;;;;8.57;5.93;;;;;;;14.37;94.29;96135.47;6350599;22;41936;-89
2024/02/10 12:00:46;;;;;;;6.20;5.53;;;;;;;14.36;92.58;96132.97;6351224;22;42113;-88
2024/02/10 12:03:15;;;;;;;6.60;5.67;;;;;;;14.41;92.18;96146.59;6352285;22;41463;-87
2024/02/10 12:05:43;;;;;;;9.03;6.43;;;;;;;14.46;92.73;96146.06;6352497;22;40959;-87
2024/02/10 12:08:12;;;;;;;8.27;5.47;;;;;;;14.45;93.02;96115.94;6352053;22;40967;-88
2024/02/10 12:10:40;;;;;;;8.90;6.10;;;;;;;14.55;91.30;96134.28;6352590;22;41880;-88
2024/02/10 12:13:09;;;;;;;8.73;6.07;;;;;;;14.54;92.45;96112.16;6352625;22;41293;-88
2024/02/10 12:15:37;;;;;;;8.17;6.30;;;;;;;14.59;91.07;96116.91;6350057;22;38918;-87
2024/02/10 12:18:06;;;;;;;8.57;6.40;;;;;;;14.74;91.94;96131.84;6377089;22;40950;-88
2024/02/10 12:20:35;;;;;;;7.73;6.03;;;;;;;14.82;92.45;96122.09;6351099;22;41999;-89
2024/02/10 12:23:03;;;;;;;8.50;6.27;;;;;;;14.84;92.82;96098.72;6350626;22;42968;-88
2024/02/10 12:25:34;;;;;;;6.80;6.00;;;;;;;14.93;91.85;96108.25;6350931;22;39070;-87
2024/02/10 12:28:01;;;;;;;6.70;6.10;;;;;;;14.85;91.58;96101.19;6350771;22;40983;-88
2024/02/10 12:30:29;;;;;;;6.93;5.73;;;;;;;14.81;92.57;96088.47;6350952;22;41539;-88
2024/02/10 12:32:58;;;;;;;7.63;6.37;;;;;;;14.78;92.24;96088.84;6350504;22;41797;-88
2024/02/10 12:35:26;;;;;;;7.37;6.13;;;;;;;14.75;90.79;96087.38;6351000;22;39872;-88
2024/02/10 12:37:53;;;;;;;7.67;5.37;;;;;;;14.77;92.12;96093.34;6377154;22;42791;-88
2024/02/10 12:40:21;;;;;;;7.17;5.40;;;;;;;14.79;92.42;96085.16;6377400;22;42917;-88
2024/02/10 12:42:51;;;;;;;8.53;6.07;;;;;;;14.89;91.29;96097.16;6350544;22;42405;-88
2024/02/10 12:45:19;;;;;;;7.70;5.93;;;;;;;14.89;91.78;96093.66;6350921;22;39777;-89
2024/02/10 12:47:47;;;;;;;7.93;5.80;;;;;;;14.88;89.96;96090.16;6350543;22;41882;-88
2024/02/10 12:50:14;;;;;;;7.40;6.00;;;;;;;14.87;91.12;96087.69;6351137;22;43122;-88
2024/02/10 12:52:45;;;;;;;6.73;5.93;;;;;;;14.89;91.69;96089.16;6350633;22;41276;-88
2024/02/10 12:55:13;;;;;;;5.90;5.30;;;;;;;15.05;91.72;96094.25;6350456;22;40827;-87
2024/02/10 12:57:41;;;;;;;8.43;6.53;;;;;;;15.06;90.31;96095.06;6376583;22;41765;-88
2024/02/10 13:00:19;;;;;;;6.77;6.13;;;;;;;15.08;90.94;96085.03;6350722;22;42792;-88
2024/02/10 13:02:48;;;;;;;6.53;5.20;;;;;;;15.29;91.14;96095.69;6351783;22;42451;-88
2024/02/10 13:05:18;;;;;;;7.37;5.50;;;;;;;15.34;91.66;96077.25;6352455;22;41847;-88
2024/02/10 13:07:48;;;;;;;5.50;5.00;;;;;;;15.39;91.11;96068.69;6351466;22;40768;-88
2024/02/10 13:10:24;;;;;;;6.70;5.43;;;;;;;15.50;91.63;96064.66;6352205;22;42508;-88
2024/02/10 13:12:54;;;;;;;7.53;5.33;;;;;;;15.38;90.76;96035.84;6349385;22;41249;-88
2024/02/10 13:15:24;;;;;;;6.93;5.93;;;;;;;15.62;90.32;96076.47;6376742;22;39817;-89
2024/02/10 13:17:53;;;;;;;6.27;5.63;;;;;;;15.51;89.93;96048.47;6350271;22;41683;-88
2024/02/10 13:20:22;;;;;;;7.73;6.27;;;;;;;15.61;89.86;96070.28;6350503;22;41622;-88
2024/02/10 13:22:51;;;;;;;7.30;5.47;;;;;;;15.49;89.67;96044.31;6350167;22;41477;-88
2024/02/10 13:25:20;;;;;;;5.40;4.90;;;;;;;15.58;90.15;96060.00;6350663;22;40362;-88
2024/02/10 13:27:50;;;;;;;4.70;4.10;;;;;;;15.53;90.68;96034.94;6350242;22;43222;-88
2024/02/10 13:30:18;;;;;;;5.60;4.87;;;;;;;15.43;88.97;96022.78;6350099;22;42995;-89
2024/02/10 13:32:47;;;;;;;6.03;4.20;;;;;;;15.48;89.36;96032.84;6349396;22;41354;-89
2024/02/10 13:35:15;;;;;;;5.57;4.67;;;;;;;15.48;89.37;96040.00;6350584;22;40303;-87
2024/02/10 14:05:08;;;;;;;7.50;4.33;;;;;;;15.05;89.85;95978.81;6351115;22;44029;-88
2024/02/10 14:10:41;;;;;;;4.13;3.73;;;;;;;15.00;90.02;95981.22;6351510;22;41020;-89
2024/02/10 14:13:14;;;;;;;5.23;4.40;;;;;;;14.84;90.57;95966.34;6377703;22;42170;-88
2024/02/10 14:15:52;;;;;;;5.93;3.87;;;;;;;14.85;91.01;95961.84;6351079;22;41494;-88
2024/02/10 14:18:25;;;;;;;6.10;4.20;;;;;;;14.93;91.17;95972.38;6351130;22;39487;-89
2024/02/10 14:21:00;;;;;;;4.80;3.90;;;;;;;15.02;90.86;95989.88;6352751;22;42986;-89
2024/02/10 14:23:29;;;;;;;5.73;4.10;;;;;;;14.93;90.50;95986.53;6352744;22;42359;-89
2024/02/10 14:25:58;;;;;;;5.27;4.20;;;;;;;14.94;90.90;95998.00;6352756;22;41374;-88
2024/02/10 14:28:36;;;;;;;4.80;4.30;;;;;;;14.83;91.42;95975.38;6352404;22;39600;-90
2024/02/10 14:31:05;;;;;;;4.63;4.17;;;;;;;15.01;91.15;95993.53;6351314;22;40790;-89
2024/02/10 14:33:33;;;;;;;7.17;3.53;;;;;;;14.91;91.15;95983.22;6351414;22;42025;-89
2024/02/10 14:36:06;;;;;;;3.73;3.37;;;;;;;14.99;91.52;95985.75;6351463;22;41342;-90
2024/02/10 14:38:48;;;;;;;4.70;3.53;;;;;;;15.04;91.69;95977.19;6351920;22;39437;-90
2024/02/10 14:41:16;;;;;;;4.83;3.07;;;;;;;15.01;92.16;95980.22;6351233;22;42053;-90
2024/02/10 14:43:51;;;;;;;5.03;3.13;;;;;;;14.83;92.78;95948.75;6351886;22;42899;-89
2024/02/10 14:46:20;;;;;;;5.17;3.17;;;;;;;14.92;92.44;95968.06;6351305;22;41454;-90
2024/02/10 14:48:50;;;;;;;4.73;3.57;;;;;;;14.87;92.57;95975.78;6351108;22;39392;-90
2024/02/10 14:51:22;;;;;;;3.93;3.40;;;;;;;14.46;91.66;95920.56;6351364;22;40899;-90
2024/02/10 14:53:52;;;;;;;4.77;3.33;;;;;;;14.76;92.38;95968.34;6351131;22;41801;-89
2024/02/10 14:56:22;;;;;;;5.07;3.40;;;;;;;14.65;91.47;95959.84;6351290;22;41180;-90
2024/02/10 14:58:53;;;;;;;3.93;3.10;;;;;;;14.67;92.32;95970.31;6351225;22;39025;-90
2024/02/10 15:01:21;;;;;;;4.63;3.00;;;;;;;14.61;93.01;95963.91;6351789;22;41499;-89
2024/02/10 15:03:54;;;;;;;4.20;3.10;;;;;;;14.63;92.96;95975.19;6352159;22;43710;-90
2024/02/10 15:06:36;;;;;;;3.00;2.70;;;;;;;14.62;93.37;95980.72;6378590;22;42269;-89
2024/02/10 15:09:10;;;;;;;2.90;2.57;;;;;;;14.68;93.56;95994.09;6352925;22;40092;-89
2024/02/10 15:11:43;;;;;;;4.30;3.10;;;;;;;14.59;93.57;95984.56;6353037;22;42347;-90
2024/02/10 15:14:11;;;;;;;3.60;3.13;;;;;;;14.58;93.70;95993.59;6325318;22;41794;-89
2024/02/10 15:16:40;;;;;;;4.37;3.47;;;;;;;14.33;94.04;95953.19;6350478;22;40852;-90
2024/02/10 15:19:08;;;;;;;3.30;2.97;;;;;;;14.60;94.29;95990.72;6350846;22;40604;-89
2024/02/10 15:21:37;;;;;;;3.50;2.47;;;;;;;14.49;94.17;95978.75;6377401;22;42141;-89
2024/02/10 15:24:19;;;;;;;;;;;;;;;;;;;;;
2024/02/10 15:26:50;;;;;;;3.63;3.23;;;;;;;13.97;94.24;95910.63;6350044;22;41103;-89
2024/02/10 15:29:20;;;;;;;6.53;3.37;;;;;;;14.29;94.42;95967.06;6349766;22;40205;-89
2024/02/10 15:31:51;;;;;;;4.80;3.30;;;;;;;14.14;94.64;95953.78;6349123;22;40755;-90
2024/02/10 15:34:19;;;;;;;4.43;3.27;;;;;;;14.20;94.74;95966.38;6349306;22;42588;-89
2024/02/10 15:37:04;;;;;;;3.60;2.70;;;;;;;14.01;94.91;95941.19;6349793;22;43849;-89
2024/02/10 15:39:42;;;;;;;3.50;2.87;;;;;;;13.61;95.27;95878.72;6350434;22;39293;-89
2024/02/10 15:42:12;;;;;;;4.20;3.50;;;;;;;13.85;95.61;95932.59;6349200;22;41118;-90
2024/02/10 15:44:45;;;;;;;3.97;3.37;;;;;;;13.85;95.99;95937.91;6349523;22;42237;-89
2024/02/10 15:47:17;;;;;;;3.60;3.20;;;;;;;13.60;96.37;95908.16;6350142;22;42917;-89
2024/02/10 15:49:46;;;;;;;3.20;2.90;;;;;;;13.51;96.45;95898.66;6350238;22;40117;-89
2024/02/10 15:52:25;;;;;;;3.97;3.10;;;;;;;13.66;96.83;95923.38;6350146;22;40778;-89
2024/02/10 15:54:55;;;;;;;3.50;3.07;;;;;;;13.49;97.32;95904.16;6376852;22;41838;-88
2024/02/10 15:57:25;;;;;;;3.97;3.00;;;;;;;13.41;97.23;95893.63;6350025;22;41309;-89
2024/02/10 15:59:55;;;;;;;4.30;2.87;;;;;;;13.22;97.49;95868.47;6347254;22;38972;-89
2024/02/10 16:02:25;;;;;;;4.30;3.30;;;;;;;13.62;97.70;95936.22;6350596;22;41171;-89
2024/02/10 16:04:54;;;;;;;5.03;3.43;;;;;;;13.48;98.20;95921.09;6349245;22;42057;-89
2024/02/10 16:07:27;;;;;;;4.63;3.50;;;;;;;13.16;98.42;95877.16;6353119;22;41328;-89
2024/02/10 16:09:58;;;;;;;3.47;3.17;;;;;;;13.10;98.36;95877.88;6351585;22;39612;-89
2024/02/10 16:12:28;;;;;;;4.27;3.57;;;;;;;13.46;98.63;95924.97;6350237;22;41900;-87
2024/02/10 16:14:58;;;;;;;3.97;3.37;;;;;;;13.29;98.95;95906.56;6348940;22;42108;-88
2024/02/10 16:17:27;;;;;;;4.30;3.67;;;;;;;12.94;98.94;95854.16;6350582;22;41716;-89
2024/02/10 16:19:55;;;;;;;4.37;3.50;;;;;;;13.10;99.15;95879.72;6352056;22;40680;-89
2024/02/10 16:22:26;;;;;;;5.30;3.87;;;;;;;13.05;99.63;95880.25;6352647;22;43383;-89
2024/02/10 16:24:57;;;;;;;4.00;3.33;;;;;;;12.95;99.80;95874.41;6348565;22;41839;-89
2024/02/10 16:27:28;;;;;;;4.73;3.03;;;;;;;12.94;99.92;95880.72;6351169;22;42497;-88
2024/02/10 16:30:00;;;;;;;4.37;3.13;;;;;;;13.13;100.00;95905.91;6348370;22;39070;-89
2024/02/10 16:32:28;;;;;;;3.40;3.10;;;;;;;12.91;100.00;95879.25;6349643;22;42993;-90
2024/02/10 16:34:58;;;;;;;4.43;3.23;;;;;;;13.08;100.00;95909.13;6348568;22;42122;-89
2024/02/10 16:37:27;;;;;;;5.50;3.30;;;;;;;12.82;100.00;95876.88;6347670;22;42374;-90
2024/02/10 16:39:57;;;;;;;4.13;3.30;;;;;;;12.81;100.00;95884.00;6348782;22;39076;-89
2024/02/10 16:42:25;;;;;;;3.80;2.93;;;;;;;12.48;100.00;95838.41;6350444;22;41097;-89
2024/02/10 16:44:54;;;;;;;4.13;3.37;;;;;;;12.68;100.00;95864.41;6350910;22;42300;-89
2024/02/10 16:47:30;;;;;;;3.73;3.10;;;;;;;12.44;100.00;95830.97;6351501;22;41310;-89
2024/02/10 16:49:58;;;;;;;5.27;2.80;;;;;;;12.81;100.00;95904.44;6377024;22;39895;-89
2024/02/10 16:52:29;;;;;;;3.80;3.33;;;;;;;12.82;100.00;95909.56;6350480;22;42123;-89
2024/02/10 16:54:59;;;;;;;4.07;3.10;;;;;;;12.58;100.00;95865.50;6351880;22;42030;-88
2024/02/10 16:57:32;;;;;;;3.90;3.20;;;;;;;12.85;100.00;95926.97;6351167;22;41468;-89
2024/02/10 17:00:00;;;;;;;4.20;3.17;;;;;;;12.69;100.00;95908.53;6350490;22;38769;-89
2024/02/10 17:02:27;;;;;;;3.97;2.90;;;;;;;12.76;100.00;95922.72;6352295;22;40805;-89
2024/02/10 17:05:01;;;;;;;4.20;3.33;;;;;;;12.56;100.00;95888.75;6351742;22;42926;-89
2024/02/10 17:07:30;;;;;;;4.30;2.93;;;;;;;12.69;100.00;95906.72;6352531;22;42549;-89
2024/02/10 17:09:58;;;;;;;5.53;3.07;;;;;;;12.63;100.00;95911.91;6351135;22;40131;-89
2024/02/10 17:12:28;;;;;;;3.40;3.10;;;;;;;12.31;100.00;95863.44;6348403;22;41280;-89
2024/02/10 17:14:56;;;;;;;4.20;2.90;;;;;;;12.65;100.00;95931.13;6349272;22;41630;-90
2024/02/10 17:17:27;;;;;;;4.37;2.93;;;;;;;12.56;100.00;95920.59;6350431;22;43077;-89
2024/02/10 17:19:54;;;;;;;3.73;2.80;;;;;;;12.24;100.00;95875.75;6350094;22;39196;-90
2024/02/10 17:22:24;;;;;;;4.17;3.10;;;;;;;12.54;100.00;95922.59;6350867;22;43636;-89
2024/02/10 17:24:53;;;;;;;3.40;3.00;;;;;;;12.29;100.00;95880.53;6350056;22;41937;-89
2024/02/10 17:27:20;;;;;;;3.17;2.73;;;;;;;12.41;100.00;95901.16;6352145;22;40876;-90
2024/02/10 17:29:52;;;;;;;3.60;3.00;;;;;;;12.26;100.00;95881.72;6350403;22;38654;-88
2024/02/10 17:32:20;;;;;;;5.40;3.70;;;;;;;12.03;100.00;95849.91;6350123;22;40921;-88
2024/02/10 17:34:47;;;;;;;3.73;3.20;;;;;;;12.21;100.00;95884.09;6349888;22;41908;-89
2024/02/10 17:37:16;;;;;;;5.33;3.20;;;;;;;12.18;100.00;95890.56;6375735;22;41293;-89
2024/02/10 17:39:43;;;;;;;3.47;3.00;;;;;;;12.23;100.00;95900.66;6349844;22;40499;-89
2024/02/10 17:42:12;;;;;;;5.10;3.40;;;;;;;12.30;100.00;95908.72;6349779;22;41984;-89
2024/02/10 17:44:40;;;;;;;3.83;3.40;;;;;;;12.27;100.00;95915.19;6350346;22;41809;-89
2024/02/10 17:47:07;;;;;;;4.47;3.17;;;;;;;12.15;100.00;95906.00;6350311;22;41615;-89
